createdAt,value
2023-04-09T00:00:01.475Z,97426.16
2023-04-09T00:02:28.170Z,97422.81
2023-04-09T00:04:54.723Z,97422.19
2023-04-09T00:07:21.227Z,97414.38
2023-04-09T00:09:47.802Z,97422.75
2023-04-09T00:12:14.399Z,97419.69
2023-04-09T00:14:40.992Z,97436.09
2023-04-09T00:17:07.595Z,97437.84
2023-04-09T00:19:34.137Z,97430.84
2023-04-09T00:22:00.771Z,97433.50
2023-04-09T00:24:27.287Z,97434.22
2023-04-09T00:26:53.848Z,97439.78
2023-04-09T00:29:20.527Z,97433.34
2023-04-09T00:31:47.155Z,97442.44
2023-04-09T00:34:14.108Z,97441.22
2023-04-09T00:36:40.967Z,97448.38
2023-04-09T00:39:07.582Z,97444.72
2023-04-09T00:41:34.180Z,97445.44
2023-04-09T00:44:00.737Z,97443.38
2023-04-09T00:46:27.470Z,97449.09
2023-04-09T00:48:54.405Z,97450.75
2023-04-09T00:51:21.128Z,97443.56
2023-04-09T00:53:48.103Z,97439.63
2023-04-09T00:56:17.466Z,97438.09
2023-04-09T00:58:44.261Z,97437.00
2023-04-09T01:01:10.919Z,97432.34
2023-04-09T01:03:37.883Z,97438.91
2023-04-09T01:06:12.071Z,97434.13
2023-04-09T01:09:00.796Z,97427.13
2023-04-09T01:11:38.824Z,97437.97
2023-04-09T01:14:26.534Z,97432.56
2023-04-09T01:17:02.846Z,97419.56
2023-04-09T01:19:41.532Z,97442.28
2023-04-09T01:22:34.404Z,97434.31
2023-04-09T01:25:09.694Z,97410.19
2023-04-09T01:28:18.243Z,97432.91
2023-04-09T01:30:50.069Z,97431.84
2023-04-09T01:33:19.721Z,97432.19
2023-04-09T01:35:48.784Z,97427.81
2023-04-09T01:38:18.494Z,97425.16
2023-04-09T01:40:46.082Z,97427.72
2023-04-09T01:43:14.088Z,97423.78
2023-04-09T01:45:40.936Z,97424.59
2023-04-09T01:48:08.339Z,97421.00
2023-04-09T01:50:35.655Z,97411.00
2023-04-09T01:53:03.966Z,97414.16
2023-04-09T01:55:30.586Z,97411.19
2023-04-09T01:57:57.256Z,97426.28
2023-04-09T02:00:26.506Z,97414.78
2023-04-09T02:03:05.323Z,97407.97
2023-04-09T02:05:38.837Z,97406.41
2023-04-09T02:08:09.557Z,97409.25
2023-04-09T02:10:39.374Z,97418.53
2023-04-09T02:13:09.692Z,97418.31
2023-04-09T02:15:39.024Z,97414.00
2023-04-09T02:18:05.764Z,97412.47
2023-04-09T02:20:32.318Z,97418.06
2023-04-09T02:22:58.852Z,97418.16
2023-04-09T02:25:26.729Z,97411.75
2023-04-09T02:27:53.292Z,97413.38
2023-04-09T02:30:19.859Z,97419.03
2023-04-09T02:32:46.463Z,97419.75
2023-04-09T02:35:13.107Z,97411.50
2023-04-09T02:37:39.681Z,97383.38
2023-04-09T02:40:06.728Z,97410.88
2023-04-09T02:42:33.285Z,97406.19
2023-04-09T02:44:59.803Z,97407.00
2023-04-09T02:47:27.279Z,97407.88
2023-04-09T02:49:53.909Z,97408.78
2023-04-09T02:52:24.258Z,97400.09
2023-04-09T02:54:50.994Z,97406.09
2023-04-09T02:57:17.609Z,97405.56
2023-04-09T02:59:45.228Z,97412.09
2023-04-09T03:02:13.115Z,97407.88
2023-04-09T03:04:40.107Z,97408.59
2023-04-09T03:07:06.738Z,97399.88
2023-04-09T03:09:33.335Z,97410.06
2023-04-09T03:11:59.843Z,97394.88
2023-04-09T03:14:26.360Z,97401.22
2023-04-09T03:16:52.901Z,97396.84
2023-04-09T03:19:19.416Z,97407.50
2023-04-09T03:21:46.482Z,97399.50
2023-04-09T03:24:13.052Z,97407.16
2023-04-09T03:26:39.596Z,97399.63
2023-04-09T03:29:06.530Z,97401.97
2023-04-09T03:31:33.689Z,97397.19
2023-04-09T03:34:00.255Z,97404.00
2023-04-09T03:36:28.168Z,97404.91
2023-04-09T03:38:54.832Z,97406.41
2023-04-09T03:41:21.599Z,97404.59
2023-04-09T03:43:48.130Z,97407.75
2023-04-09T03:46:16.114Z,97413.69
2023-04-09T03:48:43.222Z,97414.41
2023-04-09T03:51:13.827Z,97410.84
2023-04-09T03:53:41.092Z,97408.00
2023-04-09T03:56:08.515Z,97412.13
2023-04-09T03:58:35.654Z,97420.13
2023-04-09T04:01:02.453Z,97422.91
2023-04-09T04:03:29.752Z,97422.28
2023-04-09T04:06:03.464Z,97426.03
2023-04-09T04:08:30.234Z,97423.50
2023-04-09T04:10:56.831Z,97403.63
2023-04-09T04:13:23.490Z,97425.19
2023-04-09T04:15:50.278Z,97422.03
2023-04-09T04:18:16.854Z,97435.63
2023-04-09T04:20:43.404Z,97419.69
2023-04-09T04:23:09.923Z,97428.34
2023-04-09T04:25:36.536Z,97430.75
2023-04-09T04:28:03.059Z,97432.19
2023-04-09T04:30:29.628Z,97435.25
2023-04-09T04:32:56.227Z,97442.59
2023-04-09T04:35:22.984Z,97441.09
2023-04-09T04:37:51.369Z,97446.38
2023-04-09T04:40:18.148Z,97447.13
2023-04-09T04:42:44.846Z,97449.19
2023-04-09T04:45:11.588Z,97441.75
2023-04-09T04:47:38.206Z,97460.28
2023-04-09T04:50:05.760Z,97454.19
2023-04-09T04:52:32.309Z,97467.75
2023-04-09T04:54:58.844Z,97463.63
2023-04-09T04:57:25.535Z,97455.19
2023-04-09T04:59:52.047Z,97460.69
2023-04-09T05:02:18.736Z,97460.78
2023-04-09T05:04:45.411Z,97463.44
2023-04-09T05:07:11.959Z,97466.50
2023-04-09T05:09:38.555Z,97464.09
2023-04-09T05:12:05.417Z,97466.78
2023-04-09T05:14:32.022Z,97472.28
2023-04-09T05:16:58.718Z,97467.75
2023-04-09T05:19:25.395Z,97470.72
2023-04-09T05:21:51.991Z,97468.88
2023-04-09T05:24:18.551Z,97471.13
2023-04-09T05:26:45.644Z,97476.13
2023-04-09T05:29:12.177Z,97476.75
2023-04-09T05:31:40.272Z,97468.56
2023-04-09T05:34:06.855Z,97466.84
2023-04-09T05:36:33.564Z,97468.25
2023-04-09T05:39:00.372Z,97469.56
2023-04-09T05:41:26.932Z,97466.50
2023-04-09T05:43:53.810Z,97468.97
2023-04-09T05:46:20.739Z,97467.97
2023-04-09T05:48:47.430Z,97470.16
2023-04-09T05:51:15.535Z,97466.41
2023-04-09T05:53:42.827Z,97471.41
2023-04-09T05:56:18.225Z,97469.47
2023-04-09T05:58:44.904Z,97472.94
2023-04-09T06:01:11.462Z,97469.38
2023-04-09T06:03:38.195Z,97479.94
2023-04-09T06:06:05.080Z,97468.97
2023-04-09T06:08:31.728Z,97480.47
2023-04-09T06:10:58.819Z,97482.59
2023-04-09T06:13:25.621Z,97472.03
2023-04-09T06:15:52.366Z,97480.00
2023-04-09T06:18:18.922Z,97474.59
2023-04-09T06:20:45.495Z,97466.66
2023-04-09T06:23:12.091Z,97466.28
2023-04-09T06:25:38.688Z,97470.47
2023-04-09T06:28:05.450Z,97469.66
2023-04-09T06:30:32.159Z,97476.66
2023-04-09T06:32:58.770Z,97475.38
2023-04-09T06:35:25.352Z,97466.50
2023-04-09T06:37:51.833Z,97478.69
2023-04-09T06:40:20.118Z,97471.03
2023-04-09T06:42:47.982Z,97482.75
2023-04-09T06:45:14.561Z,97483.41
2023-04-09T06:47:41.127Z,97475.69
2023-04-09T06:50:08.312Z,97483.44
2023-04-09T06:52:34.890Z,97478.16
2023-04-09T06:55:01.481Z,97477.47
2023-04-09T06:57:28.066Z,97479.28
2023-04-09T06:59:54.594Z,97472.28
2023-04-09T07:02:21.600Z,97470.28
2023-04-09T07:04:48.303Z,97474.56
2023-04-09T07:07:15.018Z,97461.50
2023-04-09T07:09:42.114Z,97472.91
2023-04-09T07:12:08.720Z,97469.28
2023-04-09T07:14:35.278Z,97471.63
2023-04-09T07:17:01.843Z,97472.88
2023-04-09T07:19:28.408Z,97460.66
2023-04-09T07:21:55.426Z,97463.00
2023-04-09T07:24:22.105Z,97467.69
2023-04-09T07:26:52.046Z,97465.47
2023-04-09T07:29:20.828Z,97460.66
2023-04-09T07:31:47.738Z,97458.94
2023-04-09T07:34:14.345Z,97462.44
2023-04-09T07:36:42.876Z,97455.38
2023-04-09T07:39:09.679Z,97460.97
2023-04-09T07:41:36.739Z,97462.69
2023-04-09T07:44:03.766Z,97460.53
2023-04-09T07:46:30.332Z,97457.75
2023-04-09T07:48:56.941Z,97450.47
2023-04-09T07:51:23.473Z,97455.16
2023-04-09T07:53:50.219Z,97460.66
2023-04-09T07:56:16.837Z,97464.59
2023-04-09T07:58:43.560Z,97466.28
2023-04-09T08:01:10.273Z,97446.09
2023-04-09T08:03:37.205Z,97465.28
2023-04-09T08:06:04.230Z,97468.28
2023-04-09T08:08:31.060Z,97470.38
2023-04-09T08:10:57.700Z,97468.41
2023-04-09T08:13:25.519Z,97468.00
2023-04-09T08:15:52.344Z,97460.47
2023-04-09T08:18:19.043Z,97464.75
2023-04-09T08:20:45.799Z,97464.53
2023-04-09T08:23:12.637Z,97465.50
2023-04-09T08:25:39.366Z,97462.16
2023-04-09T08:28:06.478Z,97459.66
2023-04-09T08:30:34.297Z,97467.97
2023-04-09T08:33:01.947Z,97445.63
2023-04-09T08:35:30.970Z,97464.03
2023-04-09T08:37:57.994Z,97460.78
2023-04-09T08:40:24.579Z,97453.13
2023-04-09T08:42:58.552Z,97455.16
2023-04-09T08:45:25.179Z,97450.97
2023-04-09T08:47:52.224Z,97460.78
2023-04-09T08:50:19.738Z,97454.16
2023-04-09T08:52:48.205Z,97452.78
2023-04-09T08:55:14.780Z,97452.34
2023-04-09T08:57:42.069Z,97452.06
2023-04-09T09:00:09.381Z,97437.50
2023-04-09T09:02:36.228Z,97455.88
2023-04-09T09:05:02.986Z,97445.81
2023-04-09T09:07:30.070Z,97447.34
2023-04-09T09:10:00.771Z,97457.31
2023-04-09T09:12:36.385Z,97451.16
2023-04-09T09:15:03.935Z,97453.66
2023-04-09T09:17:30.734Z,97438.28
2023-04-09T09:19:58.157Z,97447.94
2023-04-09T09:22:24.736Z,97452.28
2023-04-09T09:24:53.026Z,97450.81
2023-04-09T09:27:43.182Z,97455.50
2023-04-09T09:30:21.717Z,97452.44
2023-04-09T09:32:52.643Z,97451.31
2023-04-09T09:35:19.658Z,97435.34
2023-04-09T09:37:46.497Z,97452.91
2023-04-09T09:40:27.793Z,97445.06
2023-04-09T09:42:58.556Z,97450.19
2023-04-09T09:45:26.204Z,97444.81
2023-04-09T09:47:54.403Z,97447.03
2023-04-09T09:50:25.416Z,97437.72
2023-04-09T09:52:59.000Z,97439.00
2023-04-09T09:55:30.628Z,97427.91
2023-04-09T09:58:02.049Z,97439.09
2023-04-09T10:00:31.847Z,97436.78
2023-04-09T10:03:12.172Z,97445.38
2023-04-09T10:05:40.882Z,97444.44
2023-04-09T10:08:08.137Z,97438.66
2023-04-09T10:10:36.608Z,97436.63
2023-04-09T10:13:06.157Z,97438.59
2023-04-09T10:15:33.085Z,97433.13
2023-04-09T10:17:59.793Z,97436.94
2023-04-09T10:20:32.884Z,97430.50
2023-04-09T10:23:06.417Z,97430.94
2023-04-09T10:25:34.258Z,97433.00
2023-04-09T10:28:16.193Z,97434.25
2023-04-09T10:30:43.367Z,97428.91
2023-04-09T10:33:15.120Z,97439.81
2023-04-09T10:35:42.467Z,97437.50
2023-04-09T10:38:09.843Z,97434.22
2023-04-09T10:40:51.017Z,97427.38
2023-04-09T10:43:23.738Z,97428.25
2023-04-09T10:45:54.538Z,97424.22
2023-04-09T10:48:22.146Z,97432.22
2023-04-09T10:50:51.202Z,97422.56
2023-04-09T10:53:25.768Z,97424.78
2023-04-09T10:55:54.023Z,97418.88
2023-04-09T10:58:21.032Z,97418.53
2023-04-09T11:00:49.482Z,97410.81
2023-04-09T11:03:21.826Z,97399.94
2023-04-09T11:05:52.633Z,97406.31
2023-04-09T11:08:19.806Z,97411.94
2023-04-09T11:10:49.846Z,97406.66
2023-04-09T11:13:20.056Z,97406.03
2023-04-09T11:15:47.105Z,97396.69
2023-04-09T11:18:24.776Z,97404.06
2023-04-09T11:21:06.709Z,97378.88
2023-04-09T11:23:33.984Z,97392.19
2023-04-09T11:26:01.837Z,97393.78
2023-04-09T11:28:28.528Z,97391.78
2023-04-09T11:30:55.282Z,97374.88
2023-04-09T11:33:22.439Z,97387.72
2023-04-09T11:35:49.212Z,97386.13
2023-04-09T11:38:16.034Z,97374.81
2023-04-09T11:40:48.528Z,97358.25
2023-04-09T11:43:20.902Z,97365.44
2023-04-09T11:45:48.727Z,97364.38
2023-04-09T11:48:18.295Z,97361.56
2023-04-09T11:50:45.795Z,97359.19
2023-04-09T11:53:18.419Z,97357.59
2023-04-09T11:55:48.175Z,97341.00
2023-04-09T11:58:15.051Z,97358.56
2023-04-09T12:00:41.646Z,97357.28
2023-04-09T12:03:10.857Z,97349.63
2023-04-09T12:05:40.587Z,97341.34
2023-04-09T12:08:09.063Z,97347.94
2023-04-09T12:10:36.872Z,97351.22
2023-04-09T12:13:06.486Z,97344.78
2023-04-09T12:15:35.976Z,97330.25
2023-04-09T12:18:03.868Z,97339.63
2023-04-09T12:20:36.275Z,97334.78
2023-04-09T12:23:04.418Z,97335.75
2023-04-09T12:25:32.842Z,97341.53
2023-04-09T12:27:59.555Z,97349.22
2023-04-09T12:30:26.568Z,97340.28
2023-04-09T12:32:54.097Z,97333.84
2023-04-09T12:35:21.895Z,97349.22
2023-04-09T12:37:49.529Z,97339.78
2023-04-09T12:40:16.375Z,97348.91
2023-04-09T12:42:44.247Z,97355.59
2023-04-09T12:45:12.492Z,97350.44
2023-04-09T12:47:39.943Z,97345.75
2023-04-09T12:50:07.453Z,97352.97
2023-04-09T12:52:34.868Z,97339.78
2023-04-09T12:55:01.550Z,97342.78
2023-04-09T12:57:28.617Z,97347.00
2023-04-09T12:59:55.332Z,97344.50
2023-04-09T13:02:22.521Z,97335.69
2023-04-09T13:04:49.765Z,97340.09
2023-04-09T13:07:18.355Z,97343.03
2023-04-09T13:09:51.219Z,97343.22
2023-04-09T13:12:18.377Z,97338.19
2023-04-09T13:14:46.713Z,97334.59
2023-04-09T13:17:13.602Z,97334.16
2023-04-09T13:19:42.091Z,97337.88
2023-04-09T13:22:09.419Z,97332.88
2023-04-09T13:24:36.725Z,97336.00
2023-04-09T13:27:04.948Z,97337.72
2023-04-09T13:29:31.982Z,97338.19
2023-04-09T13:31:58.694Z,97329.59
2023-04-09T13:34:25.382Z,97332.88
2023-04-09T13:36:52.130Z,97329.44
2023-04-09T13:39:18.659Z,97324.44
2023-04-09T13:41:45.393Z,97328.19
2023-04-09T13:44:12.483Z,97324.13
2023-04-09T13:46:39.316Z,97324.91
2023-04-09T13:49:06.011Z,97312.53
2023-04-09T13:51:33.858Z,97320.81
2023-04-09T13:54:00.611Z,97322.84
2023-04-09T13:56:27.556Z,97309.22
2023-04-09T13:58:54.781Z,97317.50
2023-04-09T14:01:21.641Z,97304.25
2023-04-09T14:03:48.426Z,97302.50
2023-04-09T14:06:15.375Z,97309.38
2023-04-09T14:08:42.043Z,97311.56
2023-04-09T14:11:08.677Z,97299.38
2023-04-09T14:13:35.431Z,97306.88
2023-04-09T14:16:02.034Z,97306.41
2023-04-09T14:18:28.692Z,97307.19
2023-04-09T14:20:55.397Z,97306.56
2023-04-09T14:23:22.066Z,97305.94
2023-04-09T14:25:48.658Z,97285.44
2023-04-09T14:28:15.322Z,97302.50
2023-04-09T14:30:41.859Z,97298.09
2023-04-09T14:33:08.455Z,97294.94
2023-04-09T14:35:35.138Z,97294.63
2023-04-09T14:38:04.429Z,97294.94
2023-04-09T14:40:32.050Z,97299.28
2023-04-09T14:43:01.535Z,97295.56
2023-04-09T14:45:30.409Z,97296.81
2023-04-09T14:47:57.418Z,97298.38
2023-04-09T14:50:24.060Z,97293.66
2023-04-09T14:52:50.856Z,97287.28
2023-04-09T14:55:17.442Z,97290.25
2023-04-09T14:57:44.118Z,97289.28
2023-04-09T15:00:12.779Z,97288.81
2023-04-09T15:02:39.707Z,97291.47
2023-04-09T15:05:06.874Z,97283.50
2023-04-09T15:07:33.585Z,97290.69
2023-04-09T15:10:00.385Z,97264.84
2023-04-09T15:12:33.271Z,97288.94
2023-04-09T15:15:00.341Z,97284.81
2023-04-09T15:17:27.470Z,97288.13
2023-04-09T15:19:54.380Z,97287.34
2023-04-09T15:22:21.096Z,97285.59
2023-04-09T15:24:47.896Z,97288.41
2023-04-09T15:27:14.421Z,97278.50
2023-04-09T15:29:41.061Z,97285.72
2023-04-09T15:32:07.949Z,97284.28
2023-04-09T15:34:34.618Z,97285.47
2023-04-09T15:37:01.202Z,97288.75
2023-04-09T15:39:28.664Z,97285.94
2023-04-09T15:41:58.280Z,97282.97
2023-04-09T15:44:25.806Z,97283.22
2023-04-09T15:46:52.489Z,97278.13
2023-04-09T15:49:19.738Z,97277.19
2023-04-09T15:51:46.812Z,97271.88
2023-04-09T15:54:14.371Z,97269.50
2023-04-09T15:56:41.038Z,97272.13
2023-04-09T15:59:08.413Z,97255.69
2023-04-09T16:01:36.629Z,97271.19
2023-04-09T16:04:04.888Z,97265.63
2023-04-09T16:06:31.686Z,97264.50
2023-04-09T16:08:58.396Z,97263.41
2023-04-09T16:11:25.020Z,97265.56
2023-04-09T16:13:52.363Z,97266.44
2023-04-09T16:16:19.863Z,97262.94
2023-04-09T16:18:46.543Z,97268.41
2023-04-09T16:21:13.188Z,97266.97
2023-04-09T16:23:40.236Z,97272.56
2023-04-09T16:26:07.086Z,97266.56
2023-04-09T16:28:33.973Z,97269.34
2023-04-09T16:31:00.831Z,97271.81
2023-04-09T16:33:27.691Z,97272.72
2023-04-09T16:35:54.395Z,97269.25
2023-04-09T16:38:21.044Z,97267.09
2023-04-09T16:40:47.743Z,97266.31
2023-04-09T16:43:14.345Z,97265.72
2023-04-09T16:45:40.947Z,97271.16
2023-04-09T16:48:12.206Z,97268.34
2023-04-09T16:50:42.939Z,97255.16
2023-04-09T16:53:09.812Z,97276.00
2023-04-09T16:55:36.615Z,97270.84
2023-04-09T16:58:03.415Z,97267.34
2023-04-09T17:00:29.938Z,97272.84
2023-04-09T17:02:57.904Z,97265.81
2023-04-09T17:05:24.981Z,97263.84
2023-04-09T17:07:52.493Z,97258.22
2023-04-09T17:10:19.800Z,97261.03
2023-04-09T17:12:46.337Z,97265.66
2023-04-09T17:15:13.002Z,97261.53
2023-04-09T17:17:39.808Z,97264.97
2023-04-09T17:20:06.977Z,97280.34
2023-04-09T17:22:35.116Z,97275.66
2023-04-09T17:25:01.956Z,97276.31
2023-04-09T17:27:28.532Z,97283.88
2023-04-09T17:29:55.115Z,97282.75
2023-04-09T17:32:21.846Z,97267.72
2023-04-09T17:34:49.519Z,97282.94
2023-04-09T17:37:16.347Z,97292.47
2023-04-09T17:39:43.000Z,97288.81
2023-04-09T17:42:11.780Z,97294.41
2023-04-09T17:44:38.994Z,97291.94
2023-04-09T17:47:07.483Z,97300.34
2023-04-09T17:49:34.633Z,97275.91
2023-04-09T17:52:01.615Z,97301.25
2023-04-09T17:54:33.603Z,97300.47
2023-04-09T17:57:01.401Z,97310.25
2023-04-09T17:59:28.226Z,97311.66
2023-04-09T18:01:55.313Z,97311.91
2023-04-09T18:04:23.847Z,97317.06
2023-04-09T18:06:51.245Z,97311.56
2023-04-09T18:09:18.070Z,97322.00
2023-04-09T18:11:45.133Z,97299.63
2023-04-09T18:14:11.994Z,97313.22
2023-04-09T18:16:39.420Z,97317.03
2023-04-09T18:19:06.668Z,97321.38
2023-04-09T18:21:33.824Z,97322.59
2023-04-09T18:24:00.695Z,97324.72
2023-04-09T18:26:27.336Z,97321.09
2023-04-09T18:28:54.261Z,97322.41
2023-04-09T18:31:21.367Z,97308.25
2023-04-09T18:33:48.010Z,97324.75
2023-04-09T18:36:14.708Z,97334.28
2023-04-09T18:38:41.274Z,97335.53
2023-04-09T18:41:08.372Z,97333.06
2023-04-09T18:43:35.053Z,97331.63
2023-04-09T18:46:01.655Z,97339.25
2023-04-09T18:48:28.394Z,97340.41
2023-04-09T18:50:54.973Z,97336.38
2023-04-09T18:53:21.493Z,97332.81
2023-04-09T18:55:48.144Z,97340.22
2023-04-09T18:58:15.820Z,97343.25
2023-04-09T19:00:43.608Z,97330.47
2023-04-09T19:03:10.495Z,97336.19
2023-04-09T19:05:37.644Z,97336.03
2023-04-09T19:08:06.827Z,97331.41
2023-04-09T19:10:33.598Z,97329.97
2023-04-09T19:13:00.372Z,97328.38
2023-04-09T19:15:28.493Z,97326.31
2023-04-09T19:17:56.687Z,97328.00
2023-04-09T19:20:23.328Z,97333.09
2023-04-09T19:22:51.854Z,97331.28
2023-04-09T19:25:19.110Z,97337.47
2023-04-09T19:27:46.036Z,97348.03
2023-04-09T19:30:13.068Z,97312.13
2023-04-09T19:32:40.183Z,97340.44
2023-04-09T19:35:07.495Z,97336.53
2023-04-09T19:37:34.859Z,97339.69
2023-04-09T19:40:04.687Z,97350.66
2023-04-09T19:42:34.719Z,97342.59
2023-04-09T19:45:01.299Z,97354.28
2023-04-09T19:47:28.495Z,97353.19
2023-04-09T19:49:55.047Z,97354.56
2023-04-09T19:52:21.838Z,97342.56
2023-04-09T19:54:53.750Z,97332.38
2023-04-09T19:57:20.428Z,97348.75
2023-04-09T19:59:48.595Z,97352.78
2023-04-09T20:02:16.749Z,97352.66
2023-04-09T20:04:43.500Z,97349.06
2023-04-09T20:07:10.093Z,97352.22
2023-04-09T20:09:41.310Z,97348.06
2023-04-09T20:12:09.063Z,97331.81
2023-04-09T20:14:38.157Z,97348.06
2023-04-09T20:17:06.030Z,97334.41
2023-04-09T20:19:32.701Z,97335.88
2023-04-09T20:22:00.354Z,97331.94
2023-04-09T20:24:28.248Z,97331.81
2023-04-09T20:26:56.215Z,97333.25
2023-04-09T20:29:22.916Z,97332.84
2023-04-09T20:31:49.540Z,97324.78
2023-04-09T20:34:16.180Z,97327.00
2023-04-09T20:36:43.950Z,97331.94
2023-04-09T20:39:11.646Z,97330.38
2023-04-09T20:41:38.515Z,97336.44
2023-04-09T21:02:17.841Z,97318.72
2023-04-09T21:04:44.735Z,97312.47
2023-04-09T21:07:11.746Z,97313.56
2023-04-09T21:09:38.469Z,97306.38
2023-04-09T21:12:05.066Z,97314.44
2023-04-09T21:14:31.664Z,97317.69
2023-04-09T21:16:58.320Z,97310.47
2023-04-09T21:19:25.097Z,97312.84
2023-04-09T21:21:51.974Z,97317.06
2023-04-09T21:24:18.534Z,97319.19
2023-04-09T21:26:51.630Z,97315.31
2023-04-09T21:29:20.713Z,97323.72
2023-04-09T21:31:48.399Z,97312.47
2023-04-09T21:34:15.549Z,97313.25
2023-04-09T21:36:42.235Z,97317.28
2023-04-09T21:39:08.823Z,97334.19
2023-04-09T21:41:35.479Z,97331.78
2023-04-09T21:44:08.081Z,97331.78
2023-04-09T21:46:36.730Z,97330.19
2023-04-09T21:49:04.126Z,97324.59
2023-04-09T21:51:31.509Z,97327.03
2023-04-09T21:54:05.084Z,97325.91
2023-04-09T21:56:33.516Z,97331.63
2023-04-09T21:59:00.945Z,97326.91
2023-04-09T22:01:29.684Z,97331.97
2023-04-09T22:04:00.279Z,97322.22
2023-04-09T22:06:27.663Z,97322.28
2023-04-09T22:08:56.882Z,97323.97
2023-04-09T22:11:28.847Z,97317.00
2023-04-09T22:13:58.494Z,97318.75
2023-04-09T22:16:25.923Z,97317.38
2023-04-09T22:18:54.212Z,97316.34
2023-04-09T22:21:21.624Z,97315.34
2023-04-09T22:23:48.371Z,97313.75
2023-04-09T22:26:15.048Z,97317.78
2023-04-09T22:28:41.610Z,97316.19
2023-04-09T22:31:08.180Z,97307.47
2023-04-09T22:33:34.751Z,97310.81
2023-04-09T22:36:01.889Z,97307.75
2023-04-09T22:38:28.610Z,97314.94
2023-04-09T22:40:55.757Z,97314.13
2023-04-09T22:43:22.794Z,97293.47
2023-04-09T22:45:54.414Z,97306.38
2023-04-09T22:48:22.069Z,97305.56
2023-04-09T22:50:48.807Z,97315.19
2023-04-09T22:53:18.892Z,97306.88
2023-04-09T22:55:47.629Z,97298.59
2023-04-09T22:58:14.572Z,97289.31
2023-04-09T23:00:41.301Z,97295.81
2023-04-09T23:03:08.093Z,97297.19
2023-04-09T23:05:35.514Z,97286.72
2023-04-09T23:08:02.269Z,97276.75
2023-04-09T23:10:28.864Z,97291.44
2023-04-09T23:12:55.441Z,97289.84
2023-04-09T23:15:21.995Z,97287.50
2023-04-09T23:17:50.536Z,97286.97
2023-04-09T23:20:17.468Z,97293.34
2023-04-09T23:22:47.428Z,97281.28
2023-04-09T23:25:14.980Z,97280.53
2023-04-09T23:27:41.573Z,97272.66
2023-04-09T23:30:08.876Z,97276.75
2023-04-09T23:32:35.872Z,97268.38
2023-04-09T23:35:02.530Z,97273.63
2023-04-09T23:37:29.142Z,97268.81
2023-04-09T23:39:55.693Z,97276.31
2023-04-09T23:42:22.355Z,97276.94
2023-04-09T23:44:50.355Z,97276.00
2023-04-09T23:47:17.497Z,97273.63
2023-04-09T23:49:44.997Z,97273.97
2023-04-09T23:52:11.622Z,97264.09
2023-04-09T23:54:38.290Z,97263.75
2023-04-09T23:57:04.841Z,97256.84
2023-04-09T23:59:33.959Z,97252.84
